createdAt,value
2019-02-26T00:04:36.970Z,102186.86
2019-02-26T00:07:16.284Z,102185.84
2019-02-26T00:09:57.568Z,102192.84
2019-02-26T00:12:35.578Z,102186.89
2019-02-26T00:15:22.558Z,102193.51
2019-02-26T00:17:53.112Z,102186.73
2019-02-26T00:20:23.530Z,102185.91
2019-02-26T00:22:55.332Z,102194.66
2019-02-26T00:25:31.333Z,102209.77
2019-02-26T00:28:01.630Z,102211.00
2019-02-26T00:30:33.478Z,102216.16
2019-02-26T00:33:09.671Z,102211.08
2019-02-26T00:35:41.652Z,102198.28
2019-02-26T00:38:32.932Z,102205.05
2019-02-26T00:41:08.666Z,102217.58
2019-02-26T00:43:38.922Z,102214.45
2019-02-26T00:46:10.359Z,102215.84
2019-02-26T00:48:52.225Z,102219.84
2019-02-26T00:51:23.158Z,102217.17
2019-02-26T00:57:06.471Z,102242.00
2019-02-26T01:02:26.006Z,102221.46
2019-02-26T01:04:56.404Z,102220.63
2019-02-26T01:07:47.397Z,102222.47
2019-02-26T01:10:44.121Z,102224.22
2019-02-26T01:13:22.421Z,102216.95
2019-02-26T01:15:58.402Z,102217.96
2019-02-26T01:18:29.031Z,102214.78
2019-02-26T01:21:22.154Z,102204.47
2019-02-26T01:24:04.233Z,102209.77
2019-02-26T01:26:42.660Z,102211.41
2019-02-26T01:29:25.242Z,102220.58
2019-02-26T01:32:02.211Z,102203.53
2019-02-26T01:34:40.403Z,102185.59
2019-02-26T01:37:27.865Z,102199.78
2019-02-26T01:40:07.337Z,102197.52
2019-02-26T01:43:01.126Z,102205.08
2019-02-26T01:46:03.342Z,102202.92
2019-02-26T01:48:34.491Z,102195.92
2019-02-26T01:51:26.107Z,102205.12
2019-02-26T01:54:01.834Z,102197.36
2019-02-26T01:56:34.048Z,102185.39
2019-02-26T01:59:23.194Z,102183.23
2019-02-26T02:01:54.157Z,102191.88
2019-02-26T02:04:55.068Z,102188.02
2019-02-26T02:07:32.106Z,102196.61
2019-02-26T02:10:03.236Z,102190.49
2019-02-26T02:13:00.279Z,102189.05
2019-02-26T02:15:37.904Z,102187.59
2019-02-26T02:18:23.016Z,102188.38
2019-02-26T02:20:58.840Z,102178.55
2019-02-26T02:23:30.374Z,102166.93
2019-02-26T02:26:20.217Z,102167.70
2019-02-26T02:28:50.577Z,102169.64
2019-02-26T02:31:22.004Z,102164.66
2019-02-26T02:33:58.142Z,102178.95
2019-02-26T02:36:28.413Z,102176.08
2019-02-26T02:39:18.179Z,102173.09
2019-02-26T02:41:55.085Z,102180.70
2019-02-26T02:44:25.636Z,102175.56
2019-02-26T02:47:27.876Z,102182.73
2019-02-26T02:50:05.152Z,102168.13
2019-02-26T02:52:40.076Z,102170.39
2019-02-26T02:55:31.971Z,102164.12
2019-02-26T02:58:02.237Z,102156.88
2019-02-26T03:00:34.488Z,102152.69
2019-02-26T03:03:09.967Z,102156.54
2019-02-26T03:05:41.510Z,102151.55
2019-02-26T03:08:31.387Z,102149.34
2019-02-26T03:13:56.999Z,102153.24
2019-02-26T03:16:28.872Z,102155.92
2019-02-26T03:18:59.195Z,102154.58
2019-02-26T03:21:30.644Z,102156.98
2019-02-26T03:24:12.374Z,102159.77
2019-02-26T03:26:42.620Z,102155.08
2019-02-26T03:29:31.793Z,102165.37
2019-02-26T03:35:02.158Z,102161.57
2019-02-26T03:37:36.605Z,102167.73
2019-02-26T03:40:12.588Z,102168.56
2019-02-26T03:48:09.977Z,102168.97
2019-02-26T03:50:45.888Z,102172.73
2019-02-26T03:53:16.193Z,102174.73
2019-02-26T03:56:25.793Z,102171.95
2019-02-26T03:59:03.986Z,102186.66
2019-02-26T04:01:49.662Z,102193.91
2019-02-26T04:04:20.731Z,102191.01
2019-02-26T04:06:58.485Z,102184.22
2019-02-26T04:09:46.673Z,102195.89
2019-02-26T04:12:21.724Z,102201.91
2019-02-26T04:14:51.976Z,102204.48
2019-02-26T04:17:25.465Z,102202.21
2019-02-26T04:20:02.559Z,102203.24
2019-02-26T04:22:42.354Z,102209.83
2019-02-26T04:25:24.644Z,102217.64
2019-02-26T04:28:15.303Z,102214.14
2019-02-26T04:31:07.848Z,102220.31
2019-02-26T04:34:08.772Z,102220.67
2019-02-26T04:37:17.404Z,102216.14
2019-02-26T04:40:13.995Z,102214.55
2019-02-26T04:43:21.961Z,102217.64
2019-02-26T04:46:31.584Z,102211.20
2019-02-26T04:49:08.443Z,102205.05
2019-02-26T04:51:41.532Z,102203.52
2019-02-26T04:54:32.739Z,102197.41
2019-02-26T04:57:08.022Z,102196.13
2019-02-26T04:59:41.311Z,102193.02
2019-02-26T05:02:35.499Z,102199.69
2019-02-26T05:08:12.335Z,102201.38
2019-02-26T05:11:02.865Z,102210.88
2019-02-26T05:13:54.196Z,102220.22
2019-02-26T05:20:09.347Z,102232.41
2019-02-26T05:22:43.640Z,102234.03
2019-02-26T05:28:14.071Z,102239.19
2019-02-26T05:30:49.509Z,102249.64
2019-02-26T05:33:27.682Z,102266.92
2019-02-26T05:36:06.066Z,102268.62
2019-02-26T05:38:42.015Z,102264.29
2019-02-26T05:41:18.488Z,102264.84
2019-02-26T05:43:52.147Z,102262.08
2019-02-26T05:46:43.029Z,102258.58
2019-02-26T05:49:37.082Z,102270.46
2019-02-26T05:52:10.443Z,102269.36
2019-02-26T05:54:41.306Z,102283.17
2019-02-26T05:57:26.071Z,102285.94
2019-02-26T06:03:20.644Z,102288.66
2019-02-26T06:06:03.116Z,102284.73
2019-02-26T06:08:36.320Z,102297.67
2019-02-26T06:14:54.009Z,102308.27
2019-02-26T06:17:30.886Z,102298.79
2019-02-26T06:20:11.944Z,102308.14
2019-02-26T06:25:35.929Z,102316.52
2019-02-26T06:28:20.525Z,102318.78
2019-02-26T06:33:53.554Z,102312.52
2019-02-26T06:39:26.929Z,102320.26
2019-02-26T06:42:17.488Z,102324.68
2019-02-26T06:44:49.426Z,102315.09
2019-02-26T06:47:39.237Z,102327.07
2019-02-26T06:50:12.938Z,102333.52
2019-02-26T06:53:04.430Z,102334.08
2019-02-26T06:55:39.705Z,102339.00
2019-02-26T06:58:29.247Z,102339.19
2019-02-26T07:01:07.170Z,102342.05
2019-02-26T07:03:43.345Z,102340.34
2019-02-26T07:06:14.013Z,102340.98
2019-02-26T07:08:46.676Z,102347.25
2019-02-26T07:11:30.170Z,102350.91
2019-02-26T07:14:07.897Z,102353.25
2019-02-26T07:16:43.687Z,102348.42
2019-02-26T07:19:20.179Z,102354.04
2019-02-26T07:21:52.958Z,102357.70
2019-02-26T07:24:44.534Z,102356.31
2019-02-26T07:27:20.017Z,102358.64
2019-02-26T07:32:40.769Z,102351.14
2019-02-26T07:35:18.097Z,102364.67
2019-02-26T07:37:48.671Z,102358.06
2019-02-26T07:46:27.883Z,102365.76
2019-02-26T07:49:04.224Z,102362.32
2019-02-26T07:51:43.626Z,102368.38
2019-02-26T07:54:14.189Z,102374.16
2019-02-26T07:56:44.674Z,102373.23
2019-02-26T07:59:15.211Z,102373.72
2019-02-26T08:01:47.195Z,102379.48
2019-02-26T08:04:28.764Z,102383.45
2019-02-26T08:07:01.365Z,102387.22
2019-02-26T08:09:36.607Z,102403.19
2019-02-26T08:12:09.397Z,102399.99
2019-02-26T08:14:58.387Z,102404.59
2019-02-26T08:17:28.877Z,102414.10
2019-02-26T08:22:46.774Z,102416.84
2019-02-26T08:25:17.324Z,102416.61
2019-02-26T08:27:49.916Z,102421.98
2019-02-26T08:30:26.166Z,102423.44
2019-02-26T08:33:05.249Z,102431.70
2019-02-26T08:35:41.429Z,102423.09
2019-02-26T08:40:54.283Z,102420.41
2019-02-26T08:43:24.855Z,102416.16
2019-02-26T08:45:55.416Z,102408.64
2019-02-26T08:48:26.985Z,102428.58
2019-02-26T08:51:06.174Z,102422.38
2019-02-26T08:53:51.899Z,102422.50
2019-02-26T08:59:11.740Z,102412.53
2019-02-26T09:01:42.455Z,102425.01
2019-02-26T09:04:14.503Z,102424.77
2019-02-26T09:06:52.431Z,102409.12
2019-02-26T09:09:30.175Z,102430.41
2019-02-26T09:12:06.829Z,102425.67
2019-02-26T09:14:40.275Z,102428.28
2019-02-26T09:20:14.683Z,102425.31
2019-02-26T09:25:40.161Z,102425.72
2019-02-26T09:28:10.940Z,102420.05
2019-02-26T09:30:41.520Z,102428.98
2019-02-26T09:33:12.062Z,102415.56
2019-02-26T09:35:45.249Z,102423.92
2019-02-26T09:38:22.953Z,102428.77
2019-02-26T09:43:59.356Z,102434.73
2019-02-26T09:46:37.198Z,102432.10
2019-02-26T09:49:14.354Z,102429.85
2019-02-26T09:51:44.911Z,102437.17
2019-02-26T09:54:17.619Z,102423.53
2019-02-26T09:56:53.303Z,102433.73
2019-02-26T09:59:23.896Z,102435.02
2019-02-26T10:01:56.426Z,102439.58
2019-02-26T10:04:44.916Z,102445.23
2019-02-26T10:07:20.568Z,102435.05
2019-02-26T10:09:51.155Z,102431.75
2019-02-26T10:12:21.929Z,102433.65
2019-02-26T10:14:54.564Z,102434.99
2019-02-26T10:17:45.178Z,102442.11
2019-02-26T10:20:23.248Z,102449.70
2019-02-26T10:26:05.764Z,102443.58
2019-02-26T10:28:42.672Z,102447.57
2019-02-26T10:31:24.137Z,102456.38
2019-02-26T10:37:15.896Z,102460.16
2019-02-26T10:39:47.955Z,102460.28
2019-02-26T10:42:24.125Z,102461.47
2019-02-26T10:44:54.740Z,102470.97
2019-02-26T10:47:27.338Z,102474.84
2019-02-26T10:50:02.917Z,102468.13
2019-02-26T10:52:33.708Z,102459.80
2019-02-26T10:55:06.477Z,102472.70
2019-02-26T11:03:21.286Z,102465.39
2019-02-26T11:05:52.393Z,102462.70
2019-02-26T11:08:30.518Z,102445.38
2019-02-26T11:11:09.462Z,102441.39
2019-02-26T11:13:47.019Z,102444.89
2019-02-26T11:16:25.118Z,102454.78
2019-02-26T11:19:19.687Z,102443.30
2019-02-26T11:21:55.550Z,102460.64
2019-02-26T11:27:31.864Z,102444.95
2019-02-26T11:30:05.011Z,102440.37
2019-02-26T11:33:06.066Z,102437.31
2019-02-26T11:38:30.827Z,102432.95
2019-02-26T11:41:20.846Z,102430.05
2019-02-26T11:43:51.434Z,102421.17
2019-02-26T11:46:23.143Z,102428.75
2019-02-26T11:52:04.717Z,102413.05
2019-02-26T11:54:37.264Z,102418.77
2019-02-26T11:57:15.179Z,102415.47
2019-02-26T12:02:46.156Z,102402.73
2019-02-26T12:05:16.834Z,102398.22
2019-02-26T12:07:48.727Z,102405.84
2019-02-26T12:10:40.422Z,102397.61
2019-02-26T12:13:17.153Z,102391.23
2019-02-26T12:18:44.956Z,102394.80
2019-02-26T12:21:21.288Z,102394.02
2019-02-26T12:23:51.798Z,102394.82
2019-02-26T12:26:25.580Z,102399.19
2019-02-26T12:31:42.994Z,102399.87
2019-02-26T12:34:14.588Z,102402.38
2019-02-26T12:37:06.613Z,102394.97
2019-02-26T12:42:29.570Z,102402.51
2019-02-26T12:45:01.826Z,102397.36
2019-02-26T12:47:54.481Z,102396.36
2019-02-26T12:50:32.988Z,102396.92
2019-02-26T12:53:15.846Z,102398.42
2019-02-26T12:55:54.042Z,102400.89
2019-02-26T12:58:29.501Z,102404.45
2019-02-26T13:01:00.275Z,102406.91
2019-02-26T13:03:30.954Z,102403.53
2019-02-26T13:06:37.507Z,102406.63
2019-02-26T13:09:32.852Z,102408.34
2019-02-26T13:12:25.066Z,102402.80
2019-02-26T13:15:04.899Z,102403.98
2019-02-26T13:17:54.309Z,102406.67
2019-02-26T13:20:26.972Z,102414.27
2019-02-26T13:23:16.436Z,102405.61
2019-02-26T13:25:48.965Z,102400.55
2019-02-26T13:28:19.483Z,102402.77
2019-02-26T13:30:49.930Z,102400.20
2019-02-26T13:33:26.283Z,102396.50
2019-02-26T13:36:11.986Z,102397.23
2019-02-26T13:38:45.900Z,102393.80
2019-02-26T13:41:38.896Z,102390.53
2019-02-26T13:44:11.616Z,102390.22
2019-02-26T13:46:42.241Z,102386.03
2019-02-26T13:49:12.961Z,102383.75
2019-02-26T13:51:56.109Z,102383.78
2019-02-26T13:54:27.346Z,102383.73
2019-02-26T13:56:57.909Z,102385.53
2019-02-26T13:59:53.007Z,102381.64
2019-02-26T14:05:15.202Z,102375.92
2019-02-26T14:08:06.470Z,102363.80
2019-02-26T14:10:37.104Z,102361.97
2019-02-26T14:13:07.812Z,102369.45
2019-02-26T14:15:45.399Z,102365.11
2019-02-26T14:18:21.478Z,102373.05
2019-02-26T14:26:34.369Z,102369.23
2019-02-26T14:29:05.323Z,102375.59
2019-02-26T14:31:35.866Z,102371.61
2019-02-26T14:34:06.155Z,102375.97
2019-02-26T14:36:36.422Z,102365.12
2019-02-26T14:39:27.137Z,102358.93
2019-02-26T14:41:57.406Z,102354.88
2019-02-26T14:44:28.016Z,102361.28
2019-02-26T14:49:52.927Z,102357.80
2019-02-26T14:52:23.156Z,102359.22
2019-02-26T14:54:54.007Z,102356.69
2019-02-26T14:57:24.303Z,102358.94
2019-02-26T14:59:55.282Z,102353.31
2019-02-26T15:02:47.879Z,102350.53
2019-02-26T15:08:30.606Z,102357.33
2019-02-26T15:11:25.974Z,102346.59
2019-02-26T15:13:56.298Z,102339.46
2019-02-26T15:16:26.609Z,102336.22
2019-02-26T15:18:56.968Z,102348.48
2019-02-26T15:21:47.674Z,102340.64
2019-02-26T15:24:17.983Z,102339.59
2019-02-26T15:27:35.740Z,102336.41
2019-02-26T15:30:24.545Z,102342.77
2019-02-26T15:32:56.192Z,102351.69
2019-02-26T15:36:06.379Z,102346.78
2019-02-26T15:38:36.650Z,102344.97
2019-02-26T15:41:26.852Z,102345.33
2019-02-26T15:46:48.285Z,102336.84
2019-02-26T15:49:20.314Z,102343.17
2019-02-26T15:52:12.940Z,102342.78
2019-02-26T15:54:45.153Z,102342.77
2019-02-26T15:57:17.802Z,102349.63
2019-02-26T16:02:40.933Z,102338.84
2019-02-26T16:11:10.290Z,102345.55
2019-02-26T16:13:40.597Z,102342.86
2019-02-26T16:16:10.839Z,102340.49
2019-02-26T16:19:01.520Z,102341.80
2019-02-26T16:24:23.234Z,102330.48
2019-02-26T16:29:45.353Z,102329.56
2019-02-26T16:38:17.077Z,102325.89
2019-02-26T16:43:39.136Z,102323.55
2019-02-26T16:46:11.353Z,102321.09
2019-02-26T16:48:41.570Z,102321.37
2019-02-26T16:51:11.763Z,102312.79
2019-02-26T16:53:42.350Z,102309.01
2019-02-26T16:56:36.695Z,102303.52
2019-02-26T16:59:07.840Z,102314.84
2019-02-26T17:01:44.383Z,102311.34
2019-02-26T17:04:38.550Z,102309.74
2019-02-26T17:07:18.376Z,102315.15
2019-02-26T17:10:09.697Z,102318.53
2019-02-26T17:12:40.027Z,102308.59
2019-02-26T17:15:32.476Z,102308.44
2019-02-26T17:18:29.065Z,102302.45
2019-02-26T17:20:59.434Z,102313.06
2019-02-26T17:23:29.768Z,102316.85
2019-02-26T17:26:00.638Z,102321.27
2019-02-26T17:28:37.357Z,102313.52
2019-02-26T17:31:07.586Z,102315.03
2019-02-26T17:33:38.081Z,102309.84
2019-02-26T17:36:08.514Z,102306.05
2019-02-26T17:41:30.714Z,102300.97
2019-02-26T17:44:02.200Z,102299.77
2019-02-26T17:46:38.321Z,102295.44
2019-02-26T17:49:08.608Z,102291.31
2019-02-26T17:51:38.824Z,102286.39
2019-02-26T17:54:09.108Z,102291.82
2019-02-26T17:56:39.381Z,102281.43
2019-02-26T17:59:09.614Z,102281.93
2019-02-26T18:01:39.893Z,102280.59
2019-02-26T18:04:10.140Z,102284.14
2019-02-26T18:06:40.378Z,102279.30
2019-02-26T18:09:10.648Z,102274.50
2019-02-26T18:11:42.647Z,102272.91
2019-02-26T18:14:12.862Z,102272.99
2019-02-26T18:22:27.132Z,102262.19
2019-02-26T18:24:57.389Z,102262.27
2019-02-26T18:27:30.363Z,102262.72
2019-02-26T18:30:54.287Z,102255.26
2019-02-26T18:33:24.467Z,102252.17
2019-02-26T18:35:54.589Z,102255.80
2019-02-26T18:38:43.948Z,102254.23
2019-02-26T18:41:14.720Z,102253.63
2019-02-26T18:47:07.093Z,102242.51
2019-02-26T18:56:17.553Z,102248.86
2019-02-26T18:58:49.072Z,102237.33
2019-02-26T19:01:47.817Z,102233.36
2019-02-26T19:04:18.842Z,102231.80
2019-02-26T19:10:01.289Z,102232.86
2019-02-26T19:12:36.641Z,102214.70
2019-02-26T19:15:08.618Z,102207.20
2019-02-26T19:17:41.814Z,102217.09
2019-02-26T19:20:14.925Z,102219.41
2019-02-26T19:22:52.102Z,102212.85
2019-02-26T19:28:19.130Z,102211.70
2019-02-26T19:30:49.883Z,102203.36
2019-02-26T19:36:15.338Z,102186.27
2019-02-26T19:39:04.587Z,102180.41
2019-02-26T19:41:36.572Z,102184.55
2019-02-26T19:44:06.937Z,102187.98
2019-02-26T19:46:49.568Z,102185.73
2019-02-26T19:49:20.723Z,102178.17
2019-02-26T19:51:51.937Z,102180.34
2019-02-26T19:54:41.565Z,102170.67
2019-02-26T19:57:16.397Z,102167.59
2019-02-26T20:00:02.587Z,102163.81
2019-02-26T20:05:30.411Z,102153.38
2019-02-26T20:11:41.000Z,102150.95
2019-02-26T20:14:14.664Z,102145.25
2019-02-26T20:19:32.978Z,102132.19
2019-02-26T20:22:03.903Z,102130.50
2019-02-26T20:24:34.389Z,102128.36
2019-02-26T20:27:05.214Z,102121.46
2019-02-26T20:29:35.866Z,102113.72
2019-02-26T20:38:40.275Z,102110.18
2019-02-26T20:41:24.461Z,102106.19
2019-02-26T20:44:14.242Z,102101.75
2019-02-26T20:47:09.842Z,102101.33
2019-02-26T20:49:40.954Z,102089.42
2019-02-26T20:52:49.486Z,102089.20
2019-02-26T20:55:41.167Z,102084.47
2019-02-26T21:01:33.885Z,102082.97
2019-02-26T21:04:24.335Z,102085.72
2019-02-26T21:07:14.217Z,102076.94
2019-02-26T21:09:45.250Z,102074.70
2019-02-26T21:12:16.109Z,102068.91
2019-02-26T21:17:52.893Z,102058.23
2019-02-26T21:20:23.714Z,102051.69
2019-02-26T21:22:55.021Z,102043.75
2019-02-26T21:25:47.513Z,102041.61
2019-02-26T21:28:24.556Z,102039.44
2019-02-26T21:30:55.118Z,102030.58
2019-02-26T21:33:25.697Z,102032.79
2019-02-26T21:35:56.314Z,102026.14
2019-02-26T21:38:27.078Z,102023.06
2019-02-26T21:40:57.978Z,102017.36
2019-02-26T21:43:28.544Z,102012.63
2019-02-26T21:45:59.052Z,102014.41
2019-02-26T21:48:29.684Z,102012.66
2019-02-26T21:51:00.152Z,102004.72
2019-02-26T21:53:30.837Z,102003.97
2019-02-26T21:56:01.453Z,101996.03
2019-02-26T21:58:31.975Z,101990.69
2019-02-26T22:01:02.543Z,101990.17
2019-02-26T22:03:34.882Z,101985.67
2019-02-26T22:06:05.763Z,101980.61
2019-02-26T22:08:57.117Z,101973.91
2019-02-26T22:11:34.545Z,101974.07
2019-02-26T22:17:06.933Z,101968.23
2019-02-26T22:22:26.155Z,101971.34
2019-02-26T22:25:15.951Z,101969.56
2019-02-26T22:27:49.664Z,101958.19
2019-02-26T22:30:22.876Z,101958.19
2019-02-26T22:32:59.770Z,101955.44
2019-02-26T22:35:30.343Z,101951.78
2019-02-26T22:38:00.961Z,101951.33
2019-02-26T22:40:31.703Z,101948.22
2019-02-26T22:43:02.314Z,101947.28
2019-02-26T22:45:32.969Z,101939.24
2019-02-26T22:48:03.631Z,101927.28
2019-02-26T22:53:59.669Z,101923.34
2019-02-26T22:56:30.328Z,101922.23
2019-02-26T22:59:01.041Z,101913.58
2019-02-26T23:01:40.517Z,101913.97
2019-02-26T23:04:11.454Z,101914.33
2019-02-26T23:06:42.040Z,101910.70
2019-02-26T23:11:59.128Z,101900.44
2019-02-26T23:17:14.978Z,101879.13
2019-02-26T23:19:45.737Z,101879.58
2019-02-26T23:22:55.448Z,101874.89
2019-02-26T23:25:26.257Z,101867.50
2019-02-26T23:27:57.037Z,101863.16
2019-02-26T23:30:27.745Z,101873.38
2019-02-26T23:35:43.347Z,101856.63
2019-02-26T23:38:13.981Z,101855.62
2019-02-26T23:40:44.511Z,101852.12
2019-02-26T23:43:15.142Z,101849.02
2019-02-26T23:45:45.722Z,101846.48
2019-02-26T23:48:16.372Z,101854.81
2019-02-26T23:50:47.866Z,101854.69
2019-02-26T23:53:38.455Z,101851.55
2019-02-26T23:56:09.107Z,101843.17
2019-02-26T23:58:39.657Z,101840.73
